Inglewood, California
Current Conditions -  °F | °C
As of 4:53 AM on Thursday 27 Nov 2014 (Local Time) from KHHR Reporting Station
Clear Clear  
Wind Chill: 59°   Ceiling: Unl
Heat Index: 59°   Visibility: 10mi
Dew Point: 30°   Wind: 0mph
Humidity: 33%   Direction: NA
Pressure: 30.08"   Gusts: NA
Location:  33.96°N, 118.35°W
Report Text: KHHR 271253Z AUTO 00000KT 10SM CLR 15/M01 A3008 RMK AO2 SLP185 T01501011
Loading
Personal Weather Stations






























Interactive Weather Map New forecast layout! Learn more

10-Day Weather Forecast

Advertisements
Track Severe Weather on mobile